Cunnamulla, Australia
Current Conditions -  °F | °C
As of 9:00 AM on Sunday 26 Oct 2014 (Local Time) from YBCV Reporting Station
Clear Clear  
Wind Chill: 90°   Ceiling: Unl
Heat Index: 90°   Visibility: 6mi
Dew Point: 41°   Wind: 14mph
Humidity: 18%   Direction: 330°NNW
Pressure: 30"   Gusts: NA
Location:  28.07°S, 145.68°E
Report Text: YBCV 252300Z 33012KT CAVOK 32/05 Q1016
Loading
Personal Weather Stations






























Interactive Weather Map
Tropical Storm Tracking
New forecast layout! Learn more

10-Day Weather Forecast

Advertisements
Track Severe Weather on mobile